createdAt,value
2019-04-04T00:00:16.351Z,5.80
2019-04-04T00:02:43.840Z,6.37
2019-04-04T00:05:10.621Z,6.08
2019-04-04T00:07:37.411Z,6.75
2019-04-04T00:10:07.137Z,6.58
2019-04-04T00:12:33.916Z,6.28
2019-04-04T00:15:00.756Z,5.87
2019-04-04T00:17:27.590Z,6.28
2019-04-04T00:19:54.424Z,6.40
2019-04-04T00:22:21.264Z,5.80
2019-04-04T00:24:48.093Z,6.70
2019-04-04T00:27:14.942Z,6.30
2019-04-04T00:29:41.720Z,6.20
2019-04-04T00:32:08.562Z,6.10
2019-04-04T00:34:35.346Z,6.15
2019-04-04T00:37:04.433Z,6.47
2019-04-04T00:39:30.830Z,5.80
2019-04-04T00:41:57.665Z,5.80
2019-04-04T00:44:24.504Z,5.90
2019-04-04T00:46:51.288Z,6.47
2019-04-04T00:49:18.125Z,6.17
2019-04-04T00:51:44.910Z,6.50
2019-04-04T00:54:12.062Z,6.50
2019-04-04T00:56:40.352Z,6.53
2019-04-04T00:59:07.181Z,6.67
2019-04-04T01:01:34.012Z,6.12
2019-04-04T01:04:01.007Z,6.40
2019-04-04T01:06:28.167Z,7.03
2019-04-04T01:08:55.005Z,6.90
2019-04-04T01:11:21.781Z,7.47
2019-04-04T01:13:49.725Z,7.22
2019-04-04T01:16:16.558Z,7.05
2019-04-04T01:18:43.350Z,7.97
2019-04-04T01:21:10.184Z,7.72
2019-04-04T01:23:37.065Z,7.87
2019-04-04T01:26:04.114Z,7.30
2019-04-04T01:28:31.008Z,7.30
2019-04-04T01:30:57.794Z,7.20
2019-04-04T01:33:24.628Z,6.47
2019-04-04T01:35:53.725Z,6.92
2019-04-04T01:38:20.068Z,7.20
2019-04-04T01:40:46.894Z,8.43
2019-04-04T01:43:13.676Z,6.35
2019-04-04T01:45:43.843Z,5.90
2019-04-04T01:48:09.110Z,5.22
2019-04-04T01:50:35.948Z,4.40
2019-04-04T01:53:02.728Z,4.97
2019-04-04T01:55:29.569Z,4.65
2019-04-04T01:57:56.351Z,5.07
2019-04-04T02:00:23.179Z,4.85
2019-04-04T02:02:51.736Z,4.70
2019-04-04T02:05:18.604Z,4.70
2019-04-04T02:07:45.384Z,4.50
2019-04-04T02:10:12.913Z,4.70
2019-04-04T02:12:39.688Z,4.62
2019-04-04T02:15:07.628Z,4.30
2019-04-04T02:17:34.416Z,4.27
2019-04-04T02:20:01.233Z,3.25
2019-04-04T02:22:30.553Z,3.65
2019-04-04T02:24:56.708Z,3.00
2019-04-04T02:27:23.544Z,3.40
2019-04-04T02:29:50.375Z,3.22
2019-04-04T02:32:18.967Z,3.60
2019-04-04T02:34:45.797Z,3.10
2019-04-04T02:37:12.574Z,3.52
2019-04-04T02:39:39.410Z,3.70
2019-04-04T02:42:06.238Z,3.72
2019-04-04T02:44:33.255Z,4.20
2019-04-04T02:47:00.206Z,4.80
2019-04-04T02:49:29.240Z,4.93
2019-04-04T02:51:57.544Z,4.80
2019-04-04T02:54:25.632Z,4.40
2019-04-04T02:56:53.456Z,4.40
2019-04-04T02:59:21.751Z,4.65
2019-04-04T03:01:48.940Z,5.00
2019-04-04T03:04:16.704Z,5.20
2019-04-04T03:06:43.539Z,5.40
2019-04-04T03:09:10.647Z,4.97
2019-04-04T03:11:37.648Z,5.03
2019-04-04T03:14:04.673Z,5.50
2019-04-04T03:16:31.762Z,5.50
2019-04-04T03:18:58.543Z,5.87
2019-04-04T03:21:25.417Z,5.70
2019-04-04T03:23:52.232Z,6.13
2019-04-04T03:26:20.481Z,6.05
2019-04-04T03:28:47.488Z,6.53
2019-04-04T03:31:14.323Z,5.95
2019-04-04T03:33:41.108Z,5.45
2019-04-04T03:36:07.948Z,5.42
2019-04-04T03:38:34.730Z,5.17
2019-04-04T03:41:01.594Z,5.10
2019-04-04T03:43:28.345Z,5.40
2019-04-04T03:45:55.183Z,5.60
2019-04-04T03:48:22.038Z,6.28
2019-04-04T03:50:48.853Z,6.30
2019-04-04T03:53:17.575Z,5.90
2019-04-04T03:55:44.633Z,5.90
2019-04-04T03:58:11.464Z,5.15
2019-04-04T04:00:40.317Z,5.80
2019-04-04T04:03:06.846Z,5.45
2019-04-04T04:05:35.662Z,4.92
2019-04-04T04:08:02.312Z,5.62
2019-04-04T04:10:32.326Z,4.55
2019-04-04T04:12:57.775Z,5.20
2019-04-04T04:15:29.178Z,5.10
2019-04-04T04:17:53.241Z,5.70
2019-04-04T04:20:20.069Z,5.30
2019-04-04T04:22:50.299Z,5.22
2019-04-04T04:25:15.530Z,5.40
2019-04-04T04:27:47.338Z,5.45
2019-04-04T04:30:12.878Z,4.80
2019-04-04T04:32:39.665Z,5.45
2019-04-04T04:35:08.621Z,6.10
2019-04-04T04:37:35.241Z,5.90
2019-04-04T04:40:03.020Z,5.55
2019-04-04T04:42:29.854Z,5.70
2019-04-04T04:44:56.651Z,5.30
2019-04-04T04:47:24.162Z,5.70
2019-04-04T04:49:51.067Z,5.33
2019-04-04T04:52:17.948Z,5.33
2019-04-04T04:54:44.734Z,6.10
2019-04-04T04:57:17.759Z,6.40
2019-04-04T04:59:40.181Z,6.72
2019-04-04T05:02:07.113Z,7.40
2019-04-04T05:04:33.909Z,6.72
2019-04-04T05:07:00.742Z,6.60
2019-04-04T05:09:27.527Z,7.78
2019-04-04T05:11:54.356Z,8.33
2019-04-04T05:14:21.144Z,8.30
2019-04-04T05:16:47.985Z,9.18
2019-04-04T05:19:14.760Z,9.40
2019-04-04T05:21:41.558Z,9.33
2019-04-04T05:24:08.425Z,9.08
2019-04-04T05:26:37.157Z,7.65
2019-04-04T05:29:03.844Z,7.72
2019-04-04T05:31:30.696Z,8.35
2019-04-04T05:33:59.095Z,8.43
2019-04-04T05:36:26.068Z,8.43
2019-04-04T05:38:52.932Z,8.70
2019-04-04T05:41:19.764Z,7.87
2019-04-04T05:43:46.597Z,8.50
2019-04-04T05:46:13.374Z,8.85
2019-04-04T05:48:40.236Z,9.60
2019-04-04T05:51:07.004Z,8.80
2019-04-04T05:53:35.450Z,9.55
2019-04-04T05:56:02.921Z,8.70
2019-04-04T05:58:29.766Z,9.07
2019-04-04T06:00:57.849Z,9.00
2019-04-04T06:03:24.918Z,8.97
2019-04-04T06:05:51.756Z,8.88
2019-04-04T06:08:18.550Z,8.95
2019-04-04T06:10:45.381Z,9.60
2019-04-04T06:13:12.160Z,9.53
2019-04-04T06:15:39.057Z,9.25
2019-04-04T06:18:05.868Z,9.43
2019-04-04T06:20:32.649Z,9.00
2019-04-04T06:22:59.495Z,9.55
2019-04-04T06:25:26.287Z,8.95
2019-04-04T06:27:53.125Z,8.90
2019-04-04T06:30:20.139Z,8.85
2019-04-04T06:32:47.656Z,9.23
2019-04-04T06:35:15.477Z,8.23
2019-04-04T06:37:45.861Z,9.30
2019-04-04T06:40:11.564Z,9.23
2019-04-04T06:42:38.406Z,8.30
2019-04-04T06:45:05.985Z,9.35
2019-04-04T06:47:32.813Z,9.18
2019-04-04T06:49:59.652Z,9.00
2019-04-04T06:52:26.482Z,9.68
2019-04-04T06:54:55.174Z,9.10
2019-04-04T06:57:21.892Z,9.18
2019-04-04T06:59:51.141Z,9.68
2019-04-04T07:02:17.832Z,9.88
2019-04-04T07:04:44.677Z,10.20
2019-04-04T07:07:12.736Z,10.57
2019-04-04T07:09:40.002Z,10.33
2019-04-04T07:12:07.288Z,9.90
2019-04-04T07:14:45.126Z,10.40
2019-04-04T07:17:02.803Z,9.78
2019-04-04T07:19:29.788Z,9.50
2019-04-04T07:21:56.620Z,9.93
2019-04-04T07:24:23.496Z,9.25
2019-04-04T07:26:50.276Z,9.00
2019-04-04T07:29:17.135Z,9.90
2019-04-04T07:31:43.913Z,10.03
2019-04-04T07:34:11.992Z,8.60
2019-04-04T07:36:39.376Z,8.65
2019-04-04T07:39:06.261Z,9.70
2019-04-04T07:41:33.093Z,9.00
2019-04-04T07:43:59.877Z,8.60
2019-04-04T07:46:26.708Z,8.28
2019-04-04T07:48:53.491Z,7.85
2019-04-04T07:51:20.324Z,7.58
2019-04-04T07:53:47.152Z,8.75
2019-04-04T07:56:14.250Z,7.72
2019-04-04T07:58:41.770Z,8.83
2019-04-04T08:01:08.600Z,6.80
2019-04-04T08:03:35.388Z,6.78
2019-04-04T08:06:02.166Z,7.37
2019-04-04T08:08:28.992Z,7.10
2019-04-04T08:10:55.828Z,6.58
2019-04-04T08:13:22.612Z,6.90
2019-04-04T08:15:49.468Z,7.20
2019-04-04T08:18:16.302Z,7.22
2019-04-04T08:20:43.124Z,6.67
2019-04-04T08:23:09.958Z,6.20
2019-04-04T08:25:36.829Z,5.75
2019-04-04T08:28:03.704Z,5.97
2019-04-04T08:30:30.600Z,5.75
2019-04-04T08:32:57.433Z,5.40
2019-04-04T08:35:24.312Z,6.00
2019-04-04T08:37:51.195Z,6.35
2019-04-04T08:40:17.951Z,5.75
2019-04-04T08:42:44.803Z,5.03
2019-04-04T08:45:11.688Z,4.62
2019-04-04T08:47:38.548Z,4.78
2019-04-04T08:50:05.536Z,4.90
2019-04-04T08:52:32.369Z,4.70
2019-04-04T08:54:59.144Z,4.05
2019-04-04T08:57:25.981Z,4.42
2019-04-04T08:59:52.812Z,4.50
2019-04-04T09:02:19.652Z,4.80
2019-04-04T09:04:46.488Z,4.78
2019-04-04T09:07:13.264Z,4.00
2019-04-04T09:09:40.174Z,3.80
2019-04-04T09:12:07.045Z,3.75
2019-04-04T09:14:33.883Z,4.70
2019-04-04T09:17:00.732Z,4.20
2019-04-04T09:19:27.544Z,3.80
2019-04-04T09:21:54.380Z,3.42
2019-04-04T09:24:21.161Z,3.90
2019-04-04T09:26:48.036Z,4.10
2019-04-04T09:29:14.876Z,3.80
2019-04-04T09:31:41.728Z,3.47
2019-04-04T09:34:08.505Z,3.40
2019-04-04T09:36:35.306Z,3.40
2019-04-04T09:39:03.420Z,3.20
2019-04-04T09:41:30.200Z,4.00
2019-04-04T09:43:57.046Z,3.50
2019-04-04T09:46:23.881Z,3.55
2019-04-04T09:48:50.723Z,4.30
2019-04-04T09:51:17.558Z,5.87
2019-04-04T09:53:52.801Z,8.57
2019-04-04T09:56:12.969Z,8.85
2019-04-04T09:58:39.796Z,9.13
2019-04-04T10:01:06.881Z,9.07
2019-04-04T10:03:33.712Z,9.83
2019-04-04T10:06:00.705Z,9.48
2019-04-04T10:08:27.503Z,9.85
2019-04-04T10:10:54.336Z,9.90
2019-04-04T10:13:21.182Z,10.50
2019-04-04T10:15:47.960Z,10.18
2019-04-04T10:18:14.792Z,10.28
2019-04-04T10:20:41.585Z,11.30
2019-04-04T10:23:08.477Z,11.33
2019-04-04T10:25:35.372Z,11.35
2019-04-04T10:28:02.229Z,11.80
2019-04-04T10:30:29.044Z,12.10
2019-04-04T10:32:55.873Z,12.20
2019-04-04T10:35:22.712Z,12.93
2019-04-04T10:37:49.536Z,13.50
2019-04-04T10:40:16.524Z,14.20
2019-04-04T10:42:43.364Z,14.47
2019-04-04T10:45:10.148Z,14.83
2019-04-04T10:47:36.992Z,14.70
2019-04-04T10:50:05.477Z,14.87
2019-04-04T10:52:32.308Z,15.10
2019-04-04T10:55:01.343Z,14.70
2019-04-04T10:57:27.827Z,17.95
2019-04-04T10:59:54.940Z,14.87
2019-04-04T11:02:21.783Z,14.25
2019-04-04T11:04:48.620Z,14.50
2019-04-04T11:07:16.205Z,14.13
2019-04-04T11:09:43.054Z,15.70
2019-04-04T11:12:09.878Z,16.20
2019-04-04T11:14:36.659Z,15.68
2019-04-04T11:17:03.492Z,15.75
2019-04-04T11:19:31.252Z,16.20
2019-04-04T11:21:58.517Z,15.05
2019-04-04T11:24:25.361Z,14.10
2019-04-04T11:26:52.145Z,15.43
2019-04-04T11:29:18.985Z,15.78
2019-04-04T11:31:45.833Z,15.83
2019-04-04T11:34:12.616Z,15.28
2019-04-04T11:36:39.397Z,15.80
2019-04-04T11:39:06.538Z,16.17
2019-04-04T11:41:33.312Z,16.17
2019-04-04T11:44:00.150Z,16.02
2019-04-04T11:46:26.932Z,15.87
2019-04-04T11:48:53.772Z,15.83
2019-04-04T11:51:20.620Z,16.02
2019-04-04T11:53:47.464Z,16.40
2019-04-04T11:56:14.262Z,16.02
2019-04-04T11:58:41.048Z,15.53
2019-04-04T12:01:09.691Z,15.88
2019-04-04T12:03:36.472Z,16.77
2019-04-04T12:06:03.412Z,16.00
2019-04-04T12:08:30.276Z,16.05
2019-04-04T12:10:57.741Z,16.30
2019-04-04T12:13:24.532Z,16.17
2019-04-04T12:15:51.364Z,16.12
2019-04-04T12:18:18.144Z,16.90
2019-04-04T12:20:44.986Z,17.87
2019-04-04T12:23:11.768Z,16.95
2019-04-04T12:25:38.652Z,16.55
2019-04-04T12:28:05.487Z,17.45
2019-04-04T12:30:32.279Z,17.17
2019-04-04T12:32:59.071Z,16.30
2019-04-04T12:35:25.905Z,18.42
2019-04-04T12:37:52.723Z,16.67
2019-04-04T12:40:21.206Z,16.90
2019-04-04T12:42:48.202Z,17.00
2019-04-04T12:45:15.033Z,17.40
2019-04-04T12:47:41.864Z,16.80
2019-04-04T12:50:09.252Z,17.80
2019-04-04T12:52:36.990Z,18.87
2019-04-04T12:55:06.389Z,17.85
2019-04-04T12:57:33.177Z,17.50
2019-04-04T13:00:00.021Z,18.20
2019-04-04T13:02:26.815Z,17.53
2019-04-04T13:04:53.651Z,17.33
2019-04-04T13:07:20.444Z,18.73
2019-04-04T13:09:47.320Z,18.50
2019-04-04T13:12:14.112Z,18.02
2019-04-04T13:14:40.933Z,18.45
2019-04-04T13:17:07.773Z,19.23
2019-04-04T13:19:34.553Z,18.42
2019-04-04T13:22:01.392Z,17.55
2019-04-04T13:24:28.173Z,19.15
2019-04-04T13:26:55.056Z,18.40
2019-04-04T13:29:21.944Z,19.30
2019-04-04T13:31:48.786Z,18.55
2019-04-04T13:34:15.556Z,19.00
2019-04-04T13:36:42.429Z,18.90
2019-04-04T13:39:09.805Z,19.45
2019-04-04T13:41:36.641Z,19.00
2019-04-04T13:44:03.425Z,18.25
2019-04-04T13:46:30.269Z,19.48
2019-04-04T13:48:57.047Z,18.48
2019-04-04T13:51:25.556Z,17.10
2019-04-04T13:53:52.556Z,16.95
2019-04-04T13:56:19.348Z,16.30
2019-04-04T13:58:47.510Z,17.20
2019-04-04T14:01:14.500Z,16.20
2019-04-04T14:03:41.309Z,16.15
2019-04-04T14:06:08.092Z,16.87
2019-04-04T14:08:34.929Z,17.20
2019-04-04T14:11:01.720Z,16.60
2019-04-04T14:13:28.556Z,17.10
2019-04-04T14:15:55.383Z,17.05
2019-04-04T14:18:22.390Z,15.80
2019-04-04T14:21:02.911Z,17.23
2019-04-04T14:23:21.516Z,15.35
2019-04-04T14:25:49.617Z,16.25
2019-04-04T14:28:16.464Z,16.00
2019-04-04T14:30:43.298Z,15.03
2019-04-04T14:33:10.189Z,15.95
2019-04-04T14:35:37.033Z,16.17
2019-04-04T14:38:03.821Z,15.03
2019-04-04T14:40:30.652Z,14.83
2019-04-04T14:42:57.488Z,16.85
2019-04-04T14:45:24.269Z,16.15
2019-04-04T14:47:51.132Z,15.93
2019-04-04T14:50:17.919Z,15.90
2019-04-04T14:52:44.753Z,16.07
2019-04-04T14:55:11.540Z,15.18
2019-04-04T14:57:38.373Z,14.60
2019-04-04T15:00:08.852Z,12.68
2019-04-04T15:02:35.685Z,12.85
2019-04-04T15:05:04.165Z,13.88
2019-04-04T15:07:31.001Z,12.28
2019-04-04T15:09:57.795Z,11.33
2019-04-04T15:12:24.641Z,10.20
2019-04-04T15:14:51.415Z,10.90
2019-04-04T15:17:18.204Z,10.10
2019-04-04T15:19:45.037Z,9.50
2019-04-04T15:22:11.816Z,9.83
2019-04-04T15:24:38.605Z,9.50
2019-04-04T15:27:05.440Z,9.20
2019-04-04T15:29:32.277Z,9.45
2019-04-04T15:31:59.114Z,9.30
2019-04-04T15:34:25.960Z,9.00
2019-04-04T15:36:52.744Z,9.18
2019-04-04T15:39:19.528Z,8.80
2019-04-04T15:41:46.376Z,8.40
2019-04-04T15:44:13.181Z,8.03
2019-04-04T15:46:40.021Z,8.30
2019-04-04T15:49:06.801Z,8.33
2019-04-04T15:51:33.637Z,8.10
2019-04-04T15:54:00.473Z,7.72
2019-04-04T15:56:27.261Z,7.97
2019-04-04T15:58:54.092Z,7.90
2019-04-04T16:01:20.890Z,8.08
2019-04-04T16:03:47.736Z,7.95
2019-04-04T16:06:14.570Z,7.23
2019-04-04T16:08:41.401Z,7.55
2019-04-04T16:11:09.404Z,7.92
2019-04-04T16:13:36.233Z,8.03
2019-04-04T16:16:03.057Z,7.70
2019-04-04T16:18:29.901Z,7.75
2019-04-04T16:20:56.691Z,8.28
2019-04-04T16:23:23.525Z,7.80
2019-04-04T16:25:50.308Z,7.83
2019-04-04T16:28:17.192Z,8.70
2019-04-04T16:30:43.979Z,7.10
2019-04-04T16:33:10.802Z,8.10
2019-04-04T16:35:37.850Z,6.72
2019-04-04T16:38:04.635Z,7.08
2019-04-04T16:40:31.462Z,7.45
2019-04-04T16:42:58.293Z,7.80
2019-04-04T16:45:25.088Z,7.67
2019-04-04T16:47:51.929Z,8.20
2019-04-04T16:50:19.420Z,7.42
2019-04-04T16:52:46.252Z,8.30
2019-04-04T16:55:13.036Z,7.95
2019-04-04T16:57:39.880Z,7.50
2019-04-04T17:00:09.817Z,8.00
2019-04-04T17:02:36.594Z,8.00
2019-04-04T17:05:04.428Z,7.90
2019-04-04T17:07:31.264Z,7.40
2019-04-04T17:09:58.099Z,6.20
2019-04-04T17:12:24.943Z,6.60
2019-04-04T17:14:51.768Z,6.20
2019-04-04T17:17:18.610Z,5.60
2019-04-04T17:19:45.389Z,5.50
2019-04-04T17:22:12.180Z,5.40
2019-04-04T17:24:39.015Z,5.20
2019-04-04T17:27:05.841Z,5.50
2019-04-04T17:29:32.673Z,5.08
2019-04-04T17:31:59.517Z,5.35
2019-04-04T17:34:26.374Z,5.87
2019-04-04T17:36:53.188Z,4.72
2019-04-04T17:39:20.152Z,5.12
2019-04-04T17:41:49.662Z,5.20
2019-04-04T17:44:15.744Z,5.12
2019-04-04T17:46:43.589Z,4.95
2019-04-04T17:49:10.668Z,4.05
2019-04-04T17:51:37.630Z,4.33
2019-04-04T17:54:04.915Z,4.30
2019-04-04T17:56:31.847Z,4.45
2019-04-04T17:58:58.624Z,4.00
2019-04-04T18:01:25.460Z,3.70
2019-04-04T18:03:52.300Z,4.20
2019-04-04T18:06:19.080Z,4.03
2019-04-04T18:08:45.914Z,4.00
2019-04-04T18:11:12.752Z,4.90
2019-04-04T18:13:39.588Z,4.33
2019-04-04T18:16:06.376Z,5.10
2019-04-04T18:18:33.625Z,5.83
2019-04-04T18:21:00.454Z,6.30
2019-04-04T18:23:27.232Z,6.40
2019-04-04T18:25:54.065Z,6.37
2019-04-04T18:28:20.895Z,6.40
2019-04-04T18:30:47.680Z,7.00
2019-04-04T18:33:15.017Z,7.07
2019-04-04T18:35:41.905Z,7.50
2019-04-04T18:38:09.054Z,7.03
2019-04-04T18:40:35.981Z,6.83
2019-04-04T18:43:02.965Z,7.10
2019-04-04T18:45:29.748Z,7.28
2019-04-04T18:47:56.606Z,6.65
2019-04-04T18:50:23.437Z,6.72
2019-04-04T18:52:50.310Z,6.15
2019-04-04T18:55:19.823Z,6.55
2019-04-04T18:57:45.740Z,6.87
2019-04-04T19:00:13.289Z,6.78
2019-04-04T19:02:40.389Z,7.10
2019-04-04T19:05:07.621Z,7.12
2019-04-04T19:07:39.449Z,8.45
2019-04-04T19:10:05.200Z,7.25
2019-04-04T19:12:32.384Z,7.20
2019-04-04T19:14:59.528Z,6.85
2019-04-04T19:17:26.355Z,7.37
2019-04-04T19:19:53.316Z,6.78
2019-04-04T19:22:20.534Z,7.50
2019-04-04T19:24:47.366Z,7.42
2019-04-04T19:27:14.196Z,7.42
2019-04-04T19:29:41.028Z,7.08
2019-04-04T19:32:07.864Z,6.83
2019-04-04T19:34:34.649Z,7.08
2019-04-04T19:37:01.843Z,6.70
2019-04-04T19:39:28.663Z,6.10
2019-04-04T19:41:55.440Z,6.28
2019-04-04T19:44:22.296Z,6.10
2019-04-04T19:46:49.128Z,6.10
2019-04-04T19:49:16.031Z,6.40
2019-04-04T19:51:42.810Z,6.10
2019-04-04T19:54:09.650Z,6.50
2019-04-04T19:56:36.446Z,6.50
2019-04-04T19:59:03.496Z,5.53
2019-04-04T20:01:30.299Z,5.75
2019-04-04T20:03:57.126Z,5.80
2019-04-04T20:06:23.903Z,6.43
2019-04-04T20:08:53.510Z,6.20
2019-04-04T20:11:19.958Z,6.05
2019-04-04T20:13:47.020Z,6.50
2019-04-04T20:16:13.902Z,7.17
2019-04-04T20:18:40.677Z,5.50
2019-04-04T20:21:07.520Z,7.37
2019-04-04T20:23:34.292Z,6.87
2019-04-04T20:26:01.134Z,8.33
2019-04-04T20:28:27.966Z,6.47
2019-04-04T20:30:54.796Z,5.92
2019-04-04T20:33:21.606Z,6.00
2019-04-04T20:35:48.429Z,6.10
2019-04-04T20:38:15.270Z,6.00
2019-04-04T20:40:42.163Z,6.20
2019-04-04T20:43:08.990Z,6.80
2019-04-04T20:45:35.767Z,6.67
2019-04-04T20:48:02.604Z,6.20
2019-04-04T20:50:29.396Z,7.45
2019-04-04T20:52:56.241Z,6.80
2019-04-04T20:55:23.074Z,6.85
2019-04-04T20:57:49.853Z,7.10
2019-04-04T21:00:17.089Z,7.70
2019-04-04T21:02:43.920Z,7.72
2019-04-04T21:05:10.814Z,7.35
2019-04-04T21:07:37.596Z,8.40
2019-04-04T21:10:05.237Z,8.20
2019-04-04T21:12:32.066Z,8.20
2019-04-04T21:14:58.901Z,8.30
2019-04-04T21:17:25.684Z,8.30
2019-04-04T21:19:52.568Z,8.58
2019-04-04T21:22:27.483Z,8.38
2019-04-04T21:24:48.057Z,8.63
2019-04-04T21:27:14.836Z,9.00
2019-04-04T21:29:41.720Z,9.03
2019-04-04T21:32:08.553Z,9.30
2019-04-04T21:34:35.333Z,9.78
2019-04-04T21:37:02.225Z,10.23
2019-04-04T21:39:29.945Z,9.83
2019-04-04T21:41:56.956Z,9.93
2019-04-04T21:44:23.740Z,9.75
2019-04-04T21:46:51.509Z,9.45
2019-04-04T21:49:18.284Z,9.33
2019-04-04T21:51:45.119Z,9.60
2019-04-04T21:54:11.909Z,10.25
2019-04-04T21:56:38.748Z,10.10
2019-04-04T21:59:05.521Z,11.00
2019-04-04T22:01:32.358Z,11.48
2019-04-04T22:03:59.203Z,11.53
2019-04-04T22:06:26.066Z,11.43
2019-04-04T22:08:53.144Z,11.80
2019-04-04T22:11:19.980Z,12.47
2019-04-04T22:13:46.824Z,11.45
2019-04-04T22:16:13.604Z,12.27
2019-04-04T22:18:40.436Z,11.90
2019-04-04T22:21:07.272Z,11.80
2019-04-04T22:23:34.108Z,12.63
2019-04-04T22:26:00.941Z,12.28
2019-04-04T22:28:27.793Z,12.30
2019-04-04T22:30:54.616Z,12.15
2019-04-04T22:33:21.452Z,12.10
2019-04-04T22:35:48.293Z,11.45
2019-04-04T22:38:15.138Z,12.75
2019-04-04T22:40:41.924Z,11.60
2019-04-04T22:43:08.747Z,11.65
2019-04-04T22:45:35.552Z,12.20
2019-04-04T22:48:02.332Z,12.60
2019-04-04T22:50:29.156Z,12.45
2019-04-04T22:52:55.932Z,13.20
2019-04-04T22:55:22.788Z,11.63
2019-04-04T22:57:49.569Z,12.18
2019-04-04T23:00:16.725Z,12.50
2019-04-04T23:02:43.504Z,12.70
2019-04-04T23:05:10.281Z,12.47
2019-04-04T23:07:37.108Z,12.30
2019-04-04T23:10:06.549Z,12.85
2019-04-04T23:12:33.342Z,12.73
2019-04-04T23:15:00.220Z,12.37
2019-04-04T23:17:27.048Z,12.50
2019-04-04T23:19:53.832Z,12.40
2019-04-04T23:22:20.676Z,12.90
2019-04-04T23:24:47.460Z,12.43
2019-04-04T23:27:14.249Z,13.70
2019-04-04T23:29:42.652Z,13.38
2019-04-04T23:32:09.728Z,13.60
2019-04-04T23:34:36.560Z,13.50
2019-04-04T23:37:03.437Z,13.43
2019-04-04T23:39:30.276Z,14.60
2019-04-04T23:41:57.576Z,12.93
2019-04-04T23:44:24.422Z,13.60
2019-04-04T23:46:51.200Z,14.15
2019-04-04T23:49:17.973Z,13.03
2019-04-04T23:51:44.800Z,13.78
2019-04-04T23:54:11.653Z,13.00
2019-04-04T23:56:38.412Z,13.03
2019-04-04T23:59:05.246Z,13.78
